sensor_id;sensor_type;location;lat;lon;timestamp;pressure;altitude;pressure_sealevel;temperature;humidity
62725;BME280;49026;52.600;4.694;2023-03-25T00:00:58;99932.72;;;7.86;81.85
62725;BME280;49026;52.600;4.694;2023-03-25T00:03:31;99928.38;;;7.85;82.23
62725;BME280;49026;52.600;4.694;2023-03-25T00:06:04;99929.38;;;7.82;82.01
62725;BME280;49026;52.600;4.694;2023-03-25T00:08:31;99931.94;;;7.84;82.15
62725;BME280;49026;52.600;4.694;2023-03-25T00:10:58;99938.06;;;7.83;82.30
62725;BME280;49026;52.600;4.694;2023-03-25T00:13:29;99929.31;;;7.84;81.68
62725;BME280;49026;52.600;4.694;2023-03-25T00:15:58;99923.16;;;7.85;82.12
62725;BME280;49026;52.600;4.694;2023-03-25T00:18:26;99917.94;;;7.85;81.96
62725;BME280;49026;52.600;4.694;2023-03-25T00:20:56;99935.34;;;7.86;81.62
62725;BME280;49026;52.600;4.694;2023-03-25T00:23:22;99935.34;;;7.86;81.84
62725;BME280;49026;52.600;4.694;2023-03-25T00:25:48;99933.63;;;7.85;81.95
62725;BME280;49026;52.600;4.694;2023-03-25T00:28:14;99909.31;;;7.83;82.62
62725;BME280;49026;52.600;4.694;2023-03-25T00:30:43;99940.81;;;7.79;82.02
62725;BME280;49026;52.600;4.694;2023-03-25T00:33:11;99929.72;;;7.74;82.36
62725;BME280;49026;52.600;4.694;2023-03-25T00:35:40;99945.53;;;7.71;81.56
62725;BME280;49026;52.600;4.694;2023-03-25T00:38:11;99931.75;;;7.68;82.00
62725;BME280;49026;52.600;4.694;2023-03-25T00:40:36;99915.28;;;7.66;82.32
62725;BME280;49026;52.600;4.694;2023-03-25T00:43:03;99916.22;;;7.63;82.35
62725;BME280;49026;52.600;4.694;2023-03-25T00:45:30;99936.25;;;7.64;82.28
62725;BME280;49026;52.600;4.694;2023-03-25T00:47:55;99919.84;;;7.60;82.65
62725;BME280;49026;52.600;4.694;2023-03-25T00:50:21;99931.28;;;7.58;82.14
62725;BME280;49026;52.600;4.694;2023-03-25T00:52:47;99929.59;;;7.57;82.29
62725;BME280;49026;52.600;4.694;2023-03-25T00:55:16;99938.34;;;7.56;82.37
62725;BME280;49026;52.600;4.694;2023-03-25T00:57:41;99940.94;;;7.56;82.14
62725;BME280;49026;52.600;4.694;2023-03-25T01:00:10;99934.88;;;7.55;81.82
62725;BME280;49026;52.600;4.694;2023-03-25T01:02:36;99919.25;;;7.54;82.17
62725;BME280;49026;52.600;4.694;2023-03-25T01:05:03;99938.47;;;7.53;82.01
62725;BME280;49026;52.600;4.694;2023-03-25T01:07:29;99910.63;;;7.52;82.13
62725;BME280;49026;52.600;4.694;2023-03-25T01:09:56;99940.19;;;7.54;82.50
62725;BME280;49026;52.600;4.694;2023-03-25T01:12:23;99935.06;;;7.51;82.18
62725;BME280;49026;52.600;4.694;2023-03-25T01:14:48;99939.53;;;7.49;81.98
62725;BME280;49026;52.600;4.694;2023-03-25T01:17:13;99927.28;;;7.49;82.34
62725;BME280;49026;52.600;4.694;2023-03-25T01:19:39;99928.94;;;7.52;82.38
62725;BME280;49026;52.600;4.694;2023-03-25T01:22:07;99940.94;;;7.56;82.70
62725;BME280;49026;52.600;4.694;2023-03-25T01:24:32;99932.97;;;7.59;82.17
62725;BME280;49026;52.600;4.694;2023-03-25T01:26:58;99943.44;;;7.59;82.59
62725;BME280;49026;52.600;4.694;2023-03-25T01:29:23;99932.22;;;7.57;82.22
62725;BME280;49026;52.600;4.694;2023-03-25T01:31:49;99940.81;;;7.59;82.18
62725;BME280;49026;52.600;4.694;2023-03-25T01:34:18;99922.41;;;7.62;82.20
62725;BME280;49026;52.600;4.694;2023-03-25T01:36:46;99928.41;;;7.64;82.56
62725;BME280;49026;52.600;4.694;2023-03-25T01:39:14;99933.44;;;7.69;83.07
62725;BME280;49026;52.600;4.694;2023-03-25T01:41:45;99918.41;;;7.74;82.32
62725;BME280;49026;52.600;4.694;2023-03-25T01:46:50;99888.38;;;7.83;82.67
62725;BME280;49026;52.600;4.694;2023-03-25T01:49:40;99918.81;;;7.85;82.47
62725;BME280;49026;52.600;4.694;2023-03-25T01:52:17;99919.50;;;7.89;82.87
62725;BME280;49026;52.600;4.694;2023-03-25T01:54:46;99920.28;;;7.91;83.10
62725;BME280;49026;52.600;4.694;2023-03-25T01:57:13;99918.44;;;7.93;83.41
62725;BME280;49026;52.600;4.694;2023-03-25T01:59:43;99915.00;;;7.92;82.68
62725;BME280;49026;52.600;4.694;2023-03-25T02:02:09;99913.22;;;7.93;82.79
62725;BME280;49026;52.600;4.694;2023-03-25T02:04:52;99910.66;;;7.91;83.19
62725;BME280;49026;52.600;4.694;2023-03-25T02:07:27;99902.94;;;7.88;83.32
62725;BME280;49026;52.600;4.694;2023-03-25T02:09:56;99899.75;;;7.82;83.11
62725;BME280;49026;52.600;4.694;2023-03-25T02:12:26;99911.16;;;7.81;82.91
62725;BME280;49026;52.600;4.694;2023-03-25T02:14:52;99893.75;;;7.79;83.57
62725;BME280;49026;52.600;4.694;2023-03-25T02:23:50;99907.28;;;7.69;83.01
62725;BME280;49026;52.600;4.694;2023-03-25T02:26:57;99903.03;;;7.66;82.89
62725;BME280;49026;52.600;4.694;2023-03-25T02:29:49;99915.34;;;7.64;83.35
62725;BME280;49026;52.600;4.694;2023-03-25T02:32:43;99901.19;;;7.68;83.55
62725;BME280;49026;52.600;4.694;2023-03-25T02:38:18;99899.38;;;7.70;82.94
62725;BME280;49026;52.600;4.694;2023-03-25T02:40:56;99895.84;;;7.71;82.94
62725;BME280;49026;52.600;4.694;2023-03-25T02:43:38;99906.44;;;7.68;83.19
62725;BME280;49026;52.600;4.694;2023-03-25T02:46:10;99894.41;;;7.64;83.03
62725;BME280;49026;52.600;4.694;2023-03-25T02:48:41;99893.69;;;7.60;83.08
62725;BME280;49026;52.600;4.694;2023-03-25T02:51:14;99886.06;;;7.56;82.88
62725;BME280;49026;52.600;4.694;2023-03-25T02:53:43;99896.56;;;7.54;83.11
62725;BME280;49026;52.600;4.694;2023-03-25T02:56:11;99889.72;;;7.52;83.21
62725;BME280;49026;52.600;4.694;2023-03-25T02:58:39;99888.91;;;7.50;82.86
62725;BME280;49026;52.600;4.694;2023-03-25T03:01:06;99888.13;;;7.48;83.24
62725;BME280;49026;52.600;4.694;2023-03-25T03:03:34;99880.41;;;7.45;83.07
62725;BME280;49026;52.600;4.694;2023-03-25T03:06:03;99881.34;;;7.44;82.96
62725;BME280;49026;52.600;4.694;2023-03-25T03:11:28;99862.31;;;7.40;83.58
62725;BME280;49026;52.600;4.694;2023-03-25T03:16:45;99879.00;;;7.37;83.52
62725;BME280;49026;52.600;4.694;2023-03-25T03:19:25;99886.97;;;7.34;83.22
62725;BME280;49026;52.600;4.694;2023-03-25T03:24:40;99881.84;;;7.31;83.46
62725;BME280;49026;52.600;4.694;2023-03-25T03:30:19;99887.94;;;7.32;82.93
62725;BME280;49026;52.600;4.694;2023-03-25T03:32:47;99880.34;;;7.26;83.39
62725;BME280;49026;52.600;4.694;2023-03-25T03:35:21;99852.47;;;7.26;83.52
62725;BME280;49026;52.600;4.694;2023-03-25T03:37:54;99870.69;;;7.28;83.39
62725;BME280;49026;52.600;4.694;2023-03-25T03:40:23;99868.91;;;7.28;83.31
62725;BME280;49026;52.600;4.694;2023-03-25T03:42:57;99869.84;;;7.27;83.20
62725;BME280;49026;52.600;4.694;2023-03-25T03:45:33;99890.75;;;7.27;83.73
62725;BME280;49026;52.600;4.694;2023-03-25T03:48:05;99871.53;;;7.28;82.67
62725;BME280;49026;52.600;4.694;2023-03-25T03:50:37;99869.91;;;7.26;83.46
62725;BME280;49026;52.600;4.694;2023-03-25T03:53:10;99884.59;;;7.28;83.27
62725;BME280;49026;52.600;4.694;2023-03-25T03:55:46;99874.78;;;7.33;82.96
62725;BME280;49026;52.600;4.694;2023-03-25T03:58:25;99886.00;;;7.37;82.88
62725;BME280;49026;52.600;4.694;2023-03-25T04:03:45;99879.66;;;7.42;83.10
62725;BME280;49026;52.600;4.694;2023-03-25T04:06:21;99884.75;;;7.46;82.96
62725;BME280;49026;52.600;4.694;2023-03-25T04:08:54;99883.91;;;7.45;83.38
62725;BME280;49026;52.600;4.694;2023-03-25T04:11:29;99883.81;;;7.47;83.42
62725;BME280;49026;52.600;4.694;2023-03-25T04:14:00;99889.84;;;7.49;83.57
62725;BME280;49026;52.600;4.694;2023-03-25T04:16:27;99886.31;;;7.50;83.40
62725;BME280;49026;52.600;4.694;2023-03-25T04:18:52;99878.28;;;7.54;83.58
62725;BME280;49026;52.600;4.694;2023-03-25T04:21:20;99868.66;;;7.55;83.48
62725;BME280;49026;52.600;4.694;2023-03-25T04:23:45;99882.53;;;7.57;83.38
62725;BME280;49026;52.600;4.694;2023-03-25T04:26:12;99884.22;;;7.58;83.65
62725;BME280;49026;52.600;4.694;2023-03-25T04:28:39;99886.75;;;7.59;84.57
62725;BME280;49026;52.600;4.694;2023-03-25T04:31:13;99894.47;;;7.63;84.27
62725;BME280;49026;52.600;4.694;2023-03-25T04:33:43;99894.34;;;7.66;84.47
62725;BME280;49026;52.600;4.694;2023-03-25T04:36:13;99891.75;;;7.66;83.84
62725;BME280;49026;52.600;4.694;2023-03-25T04:38:38;99883.06;;;7.65;83.96
62725;BME280;49026;52.600;4.694;2023-03-25T04:41:05;99896.91;;;7.67;84.56
62725;BME280;49026;52.600;4.694;2023-03-25T04:43:31;99903.03;;;7.66;84.52
62725;BME280;49026;52.600;4.694;2023-03-25T04:45:57;99873.50;;;7.64;84.27
62725;BME280;49026;52.600;4.694;2023-03-25T04:48:28;99887.59;;;7.60;84.71
62725;BME280;49026;52.600;4.694;2023-03-25T04:50:58;99887.59;;;7.60;84.64
62725;BME280;49026;52.600;4.694;2023-03-25T04:53:25;99884.34;;;7.55;84.73
62725;BME280;49026;52.600;4.694;2023-03-25T04:55:51;99892.25;;;7.53;84.69
62725;BME280;49026;52.600;4.694;2023-03-25T04:58:17;99889.72;;;7.52;84.40
62725;BME280;49026;52.600;4.694;2023-03-25T05:00:44;99885.59;;;7.46;84.49
62725;BME280;49026;52.600;4.694;2023-03-25T05:03:10;99889.91;;;7.47;83.97
62725;BME280;49026;52.600;4.694;2023-03-25T05:05:36;99895.31;;;7.42;84.55
62725;BME280;49026;52.600;4.694;2023-03-25T05:08:02;99897.88;;;7.44;84.55
62725;BME280;49026;52.600;4.694;2023-03-25T05:10:28;99885.66;;;7.45;84.34
62725;BME280;49026;52.600;4.694;2023-03-25T05:13:02;99889.13;;;7.45;84.83
62725;BME280;49026;52.600;4.694;2023-03-25T05:15:29;99882.13;;;7.46;84.29
62725;BME280;49026;52.600;4.694;2023-03-25T05:17:57;99890.69;;;7.49;84.01
62725;BME280;49026;52.600;4.694;2023-03-25T05:20:23;99900.03;;;7.55;84.44
62725;BME280;49026;52.600;4.694;2023-03-25T05:22:49;99886.88;;;7.56;84.44
62725;BME280;49026;52.600;4.694;2023-03-25T05:25:18;99897.09;;;7.63;84.87
62725;BME280;49026;52.600;4.694;2023-03-25T05:27:46;99891.75;;;7.66;84.30
62725;BME280;49026;52.600;4.694;2023-03-25T05:30:12;99897.50;;;7.74;84.46
62725;BME280;49026;52.600;4.694;2023-03-25T05:32:38;99899.03;;;7.78;84.40
62725;BME280;49026;52.600;4.694;2023-03-25T05:35:05;99912.13;;;7.78;84.92
62725;BME280;49026;52.600;4.694;2023-03-25T05:37:31;99903.25;;;7.82;84.62
62725;BME280;49026;52.600;4.694;2023-03-25T05:39:56;99909.19;;;7.86;84.49
62725;BME280;49026;52.600;4.694;2023-03-25T05:42:22;99906.44;;;7.89;84.66
62725;BME280;49026;52.600;4.694;2023-03-25T05:44:52;99901.91;;;7.92;84.17
62725;BME280;49026;52.600;4.694;2023-03-25T05:47:19;99911.44;;;7.93;84.57
62725;BME280;49026;52.600;4.694;2023-03-25T05:49:46;99920.88;;;7.97;84.78
62725;BME280;49026;52.600;4.694;2023-03-25T05:52:13;99912.00;;;8.00;84.51
62725;BME280;49026;52.600;4.694;2023-03-25T05:54:38;99920.81;;;7.99;84.02
62725;BME280;49026;52.600;4.694;2023-03-25T05:57:06;99917.53;;;7.94;83.79
62725;BME280;49026;52.600;4.694;2023-03-25T05:59:31;99923.22;;;7.83;83.70
62725;BME280;49026;52.600;4.694;2023-03-25T06:01:57;99899.22;;;7.73;83.98
62725;BME280;49026;52.600;4.694;2023-03-25T06:04:22;99929.25;;;7.65;84.18
62725;BME280;49026;52.600;4.694;2023-03-25T06:06:48;99938.53;;;7.51;84.29
62725;BME280;49026;52.600;4.694;2023-03-25T06:09:14;99940.53;;;7.45;84.77
62725;BME280;49026;52.600;4.694;2023-03-25T06:11:42;99942.75;;;7.33;84.23
62725;BME280;49026;52.600;4.694;2023-03-25T06:14:08;99940.41;;;7.27;85.00
62725;BME280;49026;52.600;4.694;2023-03-25T06:16:34;99937.97;;;7.22;84.59
62725;BME280;49026;52.600;4.694;2023-03-25T06:18:59;99928.41;;;7.21;85.23
62725;BME280;49026;52.600;4.694;2023-03-25T06:21:26;99926.56;;;7.25;85.01
62725;BME280;49026;52.600;4.694;2023-03-25T06:23:52;99943.13;;;7.24;85.03
62725;BME280;49026;52.600;4.694;2023-03-25T06:26:19;99943.91;;;7.26;84.98
62725;BME280;49026;52.600;4.694;2023-03-25T06:28:46;99911.31;;;7.35;84.57
62725;BME280;49026;52.600;4.694;2023-03-25T06:31:19;99932.69;;;7.45;84.72
62725;BME280;49026;52.600;4.694;2023-03-25T06:33:48;99942.72;;;7.55;84.76
62725;BME280;49026;52.600;4.694;2023-03-25T06:36:15;99935.19;;;7.68;84.81
62725;BME280;49026;52.600;4.694;2023-03-25T06:38:46;99946.06;;;7.79;84.37
62725;BME280;49026;52.600;4.694;2023-03-25T06:41:12;99951.94;;;7.85;84.39
62725;BME280;49026;52.600;4.694;2023-03-25T06:43:38;99947.22;;;7.93;84.41
62725;BME280;49026;52.600;4.694;2023-03-25T06:46:04;99947.94;;;7.96;84.23
62725;BME280;49026;52.600;4.694;2023-03-25T06:48:29;99958.28;;;8.00;83.71
62725;BME280;49026;52.600;4.694;2023-03-25T06:50:55;99950.34;;;8.01;84.28
62725;BME280;49026;52.600;4.694;2023-03-25T06:53:21;99945.00;;;8.04;84.60
62725;BME280;49026;52.600;4.694;2023-03-25T06:55:46;99940.47;;;8.08;84.50
62725;BME280;49026;52.600;4.694;2023-03-25T06:58:12;99957.81;;;8.10;84.67
62725;BME280;49026;52.600;4.694;2023-03-25T07:00:37;99957.59;;;8.15;84.28
62725;BME280;49026;52.600;4.694;2023-03-25T07:03:03;99947.00;;;8.18;84.99
62725;BME280;49026;52.600;4.694;2023-03-25T07:05:28;99927.69;;;8.21;84.64
62725;BME280;49026;52.600;4.694;2023-03-25T07:07:54;99938.81;;;8.26;84.81
62725;BME280;49026;52.600;4.694;2023-03-25T07:10:19;99941.22;;;8.30;85.06
62725;BME280;49026;52.600;4.694;2023-03-25T07:12:45;99951.75;;;8.29;85.19
62725;BME280;49026;52.600;4.694;2023-03-25T07:15:11;99957.91;;;8.28;85.04
62725;BME280;49026;52.600;4.694;2023-03-25T07:17:37;99950.88;;;8.28;85.48
62725;BME280;49026;52.600;4.694;2023-03-25T07:20:06;99941.28;;;8.29;85.33
62725;BME280;49026;52.600;4.694;2023-03-25T07:22:32;99951.84;;;8.27;85.19
62725;BME280;49026;52.600;4.694;2023-03-25T07:24:57;99961.06;;;8.15;84.82
62725;BME280;49026;52.600;4.694;2023-03-25T07:27:23;99942.13;;;8.10;85.46
62725;BME280;49026;52.600;4.694;2023-03-25T07:29:49;99953.88;;;8.21;85.23
62725;BME280;49026;52.600;4.694;2023-03-25T07:32:15;99954.09;;;8.35;85.54
62725;BME280;49026;52.600;4.694;2023-03-25T07:34:41;99963.19;;;8.47;84.90
62725;BME280;49026;52.600;4.694;2023-03-25T07:37:07;99942.72;;;8.55;85.03
62725;BME280;49026;52.600;4.694;2023-03-25T07:39:33;99964.03;;;8.66;84.99
62725;BME280;49026;52.600;4.694;2023-03-25T07:41:59;99958.16;;;8.80;85.64
62725;BME280;49026;52.600;4.694;2023-03-25T07:44:25;99940.16;;;8.92;85.47
62725;BME280;49026;52.600;4.694;2023-03-25T07:46:51;99958.00;;;9.02;85.33
62725;BME280;49026;52.600;4.694;2023-03-25T07:49:20;99969.34;;;9.03;85.30
62725;BME280;49026;52.600;4.694;2023-03-25T07:51:46;99966.94;;;8.98;85.59
62725;BME280;49026;52.600;4.694;2023-03-25T07:54:17;99965.47;;;8.93;85.30
62725;BME280;49026;52.600;4.694;2023-03-25T07:56:48;99970.69;;;8.93;85.27
62725;BME280;49026;52.600;4.694;2023-03-25T07:59:17;99969.72;;;8.76;84.74
62725;BME280;49026;52.600;4.694;2023-03-25T08:01:48;99966.66;;;8.47;84.79
62725;BME280;49026;52.600;4.694;2023-03-25T08:04:14;99973.22;;;8.37;85.82
62725;BME280;49026;52.600;4.694;2023-03-25T08:06:40;99968.50;;;8.45;86.17
62725;BME280;49026;52.600;4.694;2023-03-25T08:09:06;99986.28;;;8.58;86.11
62725;BME280;49026;52.600;4.694;2023-03-25T08:11:32;99983.59;;;8.78;86.69
62725;BME280;49026;52.600;4.694;2023-03-25T08:13:58;99980.31;;;9.11;86.54
62725;BME280;49026;52.600;4.694;2023-03-25T08:16:24;99973.25;;;9.31;86.59
62725;BME280;49026;52.600;4.694;2023-03-25T08:18:53;99989.69;;;9.34;85.91
62725;BME280;49026;52.600;4.694;2023-03-25T08:21:22;99964.44;;;9.32;85.31
62725;BME280;49026;52.600;4.694;2023-03-25T08:23:53;99972.38;;;9.30;85.23
62725;BME280;49026;52.600;4.694;2023-03-25T08:26:25;100000.03;;;9.37;85.44
62725;BME280;49026;52.600;4.694;2023-03-25T08:28:58;100002.19;;;9.46;85.18
62725;BME280;49026;52.600;4.694;2023-03-25T08:31:28;99986.38;;;9.48;85.07
62725;BME280;49026;52.600;4.694;2023-03-25T08:34:02;99990.03;;;9.45;84.76
62725;BME280;49026;52.600;4.694;2023-03-25T08:36:28;99994.53;;;9.42;84.90
62725;BME280;49026;52.600;4.694;2023-03-25T08:38:59;99997.97;;;9.44;84.71
62725;BME280;49026;52.600;4.694;2023-03-25T08:41:31;100001.19;;;9.49;84.41
62725;BME280;49026;52.600;4.694;2023-03-25T08:43:57;100010.81;;;9.49;83.81
62725;BME280;49026;52.600;4.694;2023-03-25T08:46:23;100006.59;;;9.46;83.52
62725;BME280;49026;52.600;4.694;2023-03-25T08:48:49;100019.50;;;9.51;83.77
62725;BME280;49026;52.600;4.694;2023-03-25T08:51:18;100020.19;;;9.54;83.30
62725;BME280;49026;52.600;4.694;2023-03-25T08:53:44;100011.22;;;9.58;82.08
62725;BME280;49026;52.600;4.694;2023-03-25T08:56:10;100023.44;;;9.59;82.87
62725;BME280;49026;52.600;4.694;2023-03-25T08:58:38;100017.88;;;9.66;82.76
62725;BME280;49026;52.600;4.694;2023-03-25T09:01:05;100022.19;;;9.67;82.54
62725;BME280;49026;52.600;4.694;2023-03-25T09:03:34;100025.75;;;9.66;82.33
62725;BME280;49026;52.600;4.694;2023-03-25T09:06:05;99994.44;;;9.62;82.03
62725;BME280;49026;52.600;4.694;2023-03-25T09:08:34;100035.78;;;9.57;82.48
62725;BME280;49026;52.600;4.694;2023-03-25T09:11:09;100020.72;;;9.61;82.20
62725;BME280;49026;52.600;4.694;2023-03-25T09:13:36;100021.56;;;9.61;81.97
62725;BME280;49026;52.600;4.694;2023-03-25T09:16:05;100018.59;;;9.69;82.03
62725;BME280;49026;52.600;4.694;2023-03-25T09:18:44;100025.13;;;9.78;81.85
62725;BME280;49026;52.600;4.694;2023-03-25T09:21:10;100033.56;;;9.85;81.80
62725;BME280;49026;52.600;4.694;2023-03-25T09:23:46;100007.63;;;9.96;81.25
62725;BME280;49026;52.600;4.694;2023-03-25T09:26:12;100036.69;;;10.09;80.13
62725;BME280;49026;52.600;4.694;2023-03-25T09:28:38;100021.47;;;10.15;80.24
62725;BME280;49026;52.600;4.694;2023-03-25T09:31:16;100020.34;;;10.21;80.32
62725;BME280;49026;52.600;4.694;2023-03-25T09:33:42;100025.59;;;10.21;80.05
62725;BME280;49026;52.600;4.694;2023-03-25T09:36:11;100027.03;;;10.27;80.69
62725;BME280;49026;52.600;4.694;2023-03-25T09:38:37;100034.16;;;10.42;80.74
62725;BME280;49026;52.600;4.694;2023-03-25T09:41:15;100030.84;;;10.88;80.11
62725;BME280;49026;52.600;4.694;2023-03-25T09:43:54;100007.78;;;11.25;79.05
62725;BME280;49026;52.600;4.694;2023-03-25T09:46:27;100036.44;;;11.45;79.87
62725;BME280;49026;52.600;4.694;2023-03-25T09:48:59;100031.00;;;11.64;79.11
62725;BME280;49026;52.600;4.694;2023-03-25T09:51:32;100030.41;;;11.90;79.30
62725;BME280;49026;52.600;4.694;2023-03-25T09:54:19;100036.47;;;12.06;77.35
62725;BME280;49026;52.600;4.694;2023-03-25T09:56:57;100045.72;;;12.13;78.55
62725;BME280;49026;52.600;4.694;2023-03-25T09:59:42;100048.06;;;12.03;78.85
62725;BME280;49026;52.600;4.694;2023-03-25T10:02:23;100048.06;;;11.87;78.89
62725;BME280;49026;52.600;4.694;2023-03-25T10:15:43;100065.19;;;11.64;79.25
62725;BME280;49026;52.600;4.694;2023-03-25T10:21:18;100065.53;;;12.49;75.75
62725;BME280;49026;52.600;4.694;2023-03-25T10:26:47;100034.44;;;12.97;77.26
62725;BME280;49026;52.600;4.694;2023-03-25T10:29:20;100031.09;;;12.67;77.00
62725;BME280;49026;52.600;4.694;2023-03-25T10:31:59;100068.94;;;12.51;74.88
62725;BME280;49026;52.600;4.694;2023-03-25T10:34:41;100027.88;;;12.33;76.81
62725;BME280;49026;52.600;4.694;2023-03-25T10:37:12;100075.81;;;12.09;75.64
62725;BME280;49026;52.600;4.694;2023-03-25T10:39:42;100088.94;;;11.95;77.33
62725;BME280;49026;52.600;4.694;2023-03-25T10:44:43;100094.28;;;11.77;76.58
62725;BME280;49026;52.600;4.694;2023-03-25T10:47:18;100086.38;;;11.77;75.53
62725;BME280;49026;52.600;4.694;2023-03-25T10:49:47;100081.66;;;11.68;76.29
62725;BME280;49026;52.600;4.694;2023-03-25T10:52:14;100096.16;;;11.75;77.08
62725;BME280;49026;52.600;4.694;2023-03-25T10:54:45;100053.31;;;11.87;77.11
62725;BME280;49026;52.600;4.694;2023-03-25T10:57:19;100073.78;;;12.29;75.61
62725;BME280;49026;52.600;4.694;2023-03-25T11:02:44;100075.28;;;13.19;74.77
62725;BME280;49026;52.600;4.694;2023-03-25T11:08:00;100093.03;;;12.74;73.66
62725;BME280;49026;52.600;4.694;2023-03-25T11:10:30;100104.72;;;12.70;73.33
62725;BME280;49026;52.600;4.694;2023-03-25T11:13:00;100101.84;;;12.30;73.92
62725;BME280;49026;52.600;4.694;2023-03-25T11:15:32;100100.38;;;12.10;75.43
62725;BME280;49026;52.600;4.694;2023-03-25T11:18:04;100102.50;;;12.03;74.45
62725;BME280;49026;52.600;4.694;2023-03-25T11:20:45;100111.06;;;12.37;74.77
62725;BME280;49026;52.600;4.694;2023-03-25T11:23:25;100082.75;;;12.69;75.04
62725;BME280;49026;52.600;4.694;2023-03-25T11:25:55;100076.81;;;12.94;73.99
62725;BME280;49026;52.600;4.694;2023-03-25T11:28:38;100108.09;;;12.86;74.09
62725;BME280;49026;52.600;4.694;2023-03-25T11:31:35;100114.88;;;12.62;73.58
62725;BME280;49026;52.600;4.694;2023-03-25T11:36:50;100113.00;;;12.64;74.33
62725;BME280;49026;52.600;4.694;2023-03-25T11:41:48;100121.72;;;12.64;73.85
62725;BME280;49026;52.600;4.694;2023-03-25T11:44:26;100109.03;;;13.00;73.29
62725;BME280;49026;52.600;4.694;2023-03-25T11:46:59;100120.63;;;13.40;72.95
62725;BME280;49026;52.600;4.694;2023-03-25T11:49:32;100055.84;;;13.49;72.41
62725;BME280;49026;52.600;4.694;2023-03-25T11:52:13;100110.75;;;13.15;71.44
62725;BME280;49026;52.600;4.694;2023-03-25T11:54:43;100110.34;;;12.92;72.31
62725;BME280;49026;52.600;4.694;2023-03-25T11:57:19;100110.25;;;12.94;73.73
62725;BME280;49026;52.600;4.694;2023-03-25T11:59:48;100117.03;;;12.69;72.21
62725;BME280;49026;52.600;4.694;2023-03-25T12:02:22;100120.56;;;12.39;72.91
62725;BME280;49026;52.600;4.694;2023-03-25T12:07:28;100096.00;;;12.25;73.50
62725;BME280;49026;52.600;4.694;2023-03-25T12:09:56;100114.47;;;12.09;72.98
62725;BME280;49026;52.600;4.694;2023-03-25T12:20:40;100112.78;;;12.52;73.08
62725;BME280;49026;52.600;4.694;2023-03-25T12:23:31;100097.66;;;12.70;71.76
62725;BME280;49026;52.600;4.694;2023-03-25T12:31:56;100092.16;;;13.45;72.67
62725;BME280;49026;52.600;4.694;2023-03-25T12:43:04;100097.50;;;13.29;69.92
62725;BME280;49026;52.600;4.694;2023-03-25T12:56:42;100102.31;;;12.06;70.53
62725;BME280;49026;52.600;4.694;2023-03-25T13:04:54;100101.56;;;12.04;71.66
62725;BME280;49026;52.600;4.694;2023-03-25T13:07:27;100102.59;;;11.85;71.48
62725;BME280;49026;52.600;4.694;2023-03-25T13:10:06;100122.81;;;11.69;71.78
62725;BME280;49026;52.600;4.694;2023-03-25T13:12:40;100122.50;;;11.43;72.24
62725;BME280;49026;52.600;4.694;2023-03-25T13:15:19;100106.00;;;11.08;71.65
62725;BME280;49026;52.600;4.694;2023-03-25T13:17:50;100131.44;;;10.74;72.27
62725;BME280;49026;52.600;4.694;2023-03-25T13:20:19;100133.66;;;10.48;72.30
62725;BME280;49026;52.600;4.694;2023-03-25T13:22:58;100128.28;;;10.15;72.72
62725;BME280;49026;52.600;4.694;2023-03-25T13:28:34;100157.47;;;9.53;73.42
62725;BME280;49026;52.600;4.694;2023-03-25T13:31:05;100175.34;;;8.86;74.61
62725;BME280;49026;52.600;4.694;2023-03-25T13:33:37;100179.88;;;8.40;76.59
62725;BME280;49026;52.600;4.694;2023-03-25T13:36:29;100178.63;;;8.06;77.34
62725;BME280;49026;52.600;4.694;2023-03-25T13:39:03;100178.59;;;7.86;78.57
62725;BME280;49026;52.600;4.694;2023-03-25T13:41:41;100168.91;;;7.88;79.48
62725;BME280;49026;52.600;4.694;2023-03-25T13:46:56;100143.56;;;8.32;80.61
62725;BME280;49026;52.600;4.694;2023-03-25T13:49:46;100188.38;;;8.25;81.11
62725;BME280;49026;52.600;4.694;2023-03-25T13:52:20;100173.41;;;8.06;81.45
62725;BME280;49026;52.600;4.694;2023-03-25T13:54:58;100194.91;;;7.92;82.12
62725;BME280;49026;52.600;4.694;2023-03-25T14:00:25;100195.13;;;7.64;82.24
62725;BME280;49026;52.600;4.694;2023-03-25T14:11:48;100215.56;;;7.76;83.98
62725;BME280;49026;52.600;4.694;2023-03-25T14:14:24;100219.16;;;7.74;83.88
62725;BME280;49026;52.600;4.694;2023-03-25T14:16:55;100202.59;;;7.73;84.60
62725;BME280;49026;52.600;4.694;2023-03-25T14:19:33;100223.03;;;7.64;84.52
62725;BME280;49026;52.600;4.694;2023-03-25T14:22:13;100210.75;;;7.66;84.68
62725;BME280;49026;52.600;4.694;2023-03-25T14:24:44;100216.94;;;7.63;84.94
62725;BME280;49026;52.600;4.694;2023-03-25T14:27:29;100245.03;;;7.58;84.63
62725;BME280;49026;52.600;4.694;2023-03-25T14:30:14;100242.25;;;7.63;84.74
62725;BME280;49026;52.600;4.694;2023-03-25T14:32:49;100252.44;;;7.70;84.96
62725;BME280;49026;52.600;4.694;2023-03-25T14:43:44;100238.03;;;8.04;84.74
62725;BME280;49026;52.600;4.694;2023-03-25T14:46:20;100252.75;;;8.07;84.60
62725;BME280;49026;52.600;4.694;2023-03-25T14:48:50;100250.06;;;8.08;84.46
62725;BME280;49026;52.600;4.694;2023-03-25T14:54:01;100269.66;;;7.98;85.50
62725;BME280;49026;52.600;4.694;2023-03-25T14:56:37;100278.78;;;7.88;84.64
62725;BME280;49026;52.600;4.694;2023-03-25T14:59:14;100289.47;;;7.82;85.18
62725;BME280;49026;52.600;4.694;2023-03-25T15:01:43;100297.50;;;7.77;84.98
62725;BME280;49026;52.600;4.694;2023-03-25T15:04:14;100300.28;;;7.72;84.88
62725;BME280;49026;52.600;4.694;2023-03-25T15:06:41;100298.69;;;7.68;85.32
62725;BME280;49026;52.600;4.694;2023-03-25T15:09:10;100295.38;;;7.63;85.21
62725;BME280;49026;52.600;4.694;2023-03-25T15:11:38;100303.34;;;7.60;85.01
62725;BME280;49026;52.600;4.694;2023-03-25T15:14:07;100313.00;;;7.58;84.94
62725;BME280;49026;52.600;4.694;2023-03-25T15:16:54;100308.69;;;7.57;84.85
62725;BME280;49026;52.600;4.694;2023-03-25T15:19:22;100315.66;;;7.56;85.11
62725;BME280;49026;52.600;4.694;2023-03-25T15:24:29;100311.88;;;7.89;85.22
62725;BME280;49026;52.600;4.694;2023-03-25T15:27:38;100315.50;;;8.08;84.53
62725;BME280;49026;52.600;4.694;2023-03-25T15:33:38;100317.66;;;8.21;84.86
62725;BME280;49026;52.600;4.694;2023-03-25T15:56:09;100358.25;;;7.85;86.05